sensor_id;sensor_type;location;lat;lon;timestamp;pressure;altitude;pressure_sealevel;temperature;humidity
63554;BME280;49699;48.072;7.800;2023-01-19T00:00:42;98519.56;;;-1.70;88.03
63554;BME280;49699;48.072;7.800;2023-01-19T00:03:07;98520.41;;;-1.71;88.04
63554;BME280;49699;48.072;7.800;2023-01-19T00:05:41;98522.16;;;-1.73;87.65
63554;BME280;49699;48.072;7.800;2023-01-19T00:08:08;98525.59;;;-1.75;88.04
63554;BME280;49699;48.072;7.800;2023-01-19T00:10:41;98523.91;;;-1.76;88.00
63554;BME280;49699;48.072;7.800;2023-01-19T00:13:06;98526.50;;;-1.77;87.99
63554;BME280;49699;48.072;7.800;2023-01-19T00:15:32;98526.59;;;-1.80;87.84
63554;BME280;49699;48.072;7.800;2023-01-19T00:17:57;98524.91;;;-1.81;87.97
63554;BME280;49699;48.072;7.800;2023-01-19T00:20:22;98527.47;;;-1.81;88.03
63554;BME280;49699;48.072;7.800;2023-01-19T00:22:48;98522.34;;;-1.81;87.81
63554;BME280;49699;48.072;7.800;2023-01-19T00:25:15;98521.56;;;-1.83;87.87
63554;BME280;49699;48.072;7.800;2023-01-19T00:27:41;98525.00;;;-1.86;87.82
63554;BME280;49699;48.072;7.800;2023-01-19T00:30:14;98519.09;;;-1.88;88.03
63554;BME280;49699;48.072;7.800;2023-01-19T00:32:40;98518.31;;;-1.91;87.79
63554;BME280;49699;48.072;7.800;2023-01-19T00:35:06;98522.63;;;-1.95;88.07
63554;BME280;49699;48.072;7.800;2023-01-19T00:37:31;98531.22;;;-1.97;88.24
63554;BME280;49699;48.072;7.800;2023-01-19T00:39:56;98527.03;;;-2.00;88.01
63554;BME280;49699;48.072;7.800;2023-01-19T00:42:22;98540.66;;;-2.01;88.08
63554;BME280;49699;48.072;7.800;2023-01-19T00:45:23;98539.88;;;-2.04;88.22
63554;BME280;49699;48.072;7.800;2023-01-19T00:47:49;98542.38;;;-2.03;88.29
63554;BME280;49699;48.072;7.800;2023-01-19T00:50:21;98549.16;;;-2.02;88.17
63554;BME280;49699;48.072;7.800;2023-01-19T00:52:48;98545.78;;;-2.02;88.16
63554;BME280;49699;48.072;7.800;2023-01-19T00:55:14;98543.28;;;-2.05;88.26
63554;BME280;49699;48.072;7.800;2023-01-19T00:57:40;98549.25;;;-2.06;87.99
63554;BME280;49699;48.072;7.800;2023-01-19T01:00:09;98549.34;;;-2.11;88.10
63554;BME280;49699;48.072;7.800;2023-01-19T01:02:36;98543.44;;;-2.13;88.15
63554;BME280;49699;48.072;7.800;2023-01-19T01:05:03;98549.41;;;-2.14;88.34
63554;BME280;49699;48.072;7.800;2023-01-19T01:07:30;98551.09;;;-2.15;88.42
63554;BME280;49699;48.072;7.800;2023-01-19T01:09:59;98551.06;;;-2.13;88.32
63554;BME280;49699;48.072;7.800;2023-01-19T01:12:25;98549.38;;;-2.13;88.20
63554;BME280;49699;48.072;7.800;2023-01-19T01:14:51;98555.28;;;-2.11;88.43
63554;BME280;49699;48.072;7.800;2023-01-19T01:17:16;98559.47;;;-2.08;87.97
63554;BME280;49699;48.072;7.800;2023-01-19T01:19:42;98565.41;;;-2.07;87.92
63554;BME280;49699;48.072;7.800;2023-01-19T01:22:08;98560.31;;;-2.07;87.96
63554;BME280;49699;48.072;7.800;2023-01-19T01:24:34;98568.81;;;-2.07;87.97
63554;BME280;49699;48.072;7.800;2023-01-19T01:26:59;98562.94;;;-2.11;88.10
63554;BME280;49699;48.072;7.800;2023-01-19T01:29:25;98566.31;;;-2.10;87.91
63554;BME280;49699;48.072;7.800;2023-01-19T01:31:50;98568.88;;;-2.10;88.21
63554;BME280;49699;48.072;7.800;2023-01-19T01:34:16;98569.66;;;-2.06;88.25
63554;BME280;49699;48.072;7.800;2023-01-19T01:36:41;98571.28;;;-2.04;88.11
63554;BME280;49699;48.072;7.800;2023-01-19T01:39:07;98567.72;;;-1.97;88.25
63554;BME280;49699;48.072;7.800;2023-01-19T01:41:33;98573.63;;;-1.93;87.73
63554;BME280;49699;48.072;7.800;2023-01-19T01:43:58;98570.97;;;-1.89;87.53
63554;BME280;49699;48.072;7.800;2023-01-19T01:46:28;98578.56;;;-1.86;87.71
63554;BME280;49699;48.072;7.800;2023-01-19T01:49:04;98584.41;;;-1.81;87.59
63554;BME280;49699;48.072;7.800;2023-01-19T01:51:37;98581.78;;;-1.78;87.78
63554;BME280;49699;48.072;7.800;2023-01-19T01:54:07;98582.56;;;-1.76;87.33
63554;BME280;49699;48.072;7.800;2023-01-19T01:56:38;98576.59;;;-1.75;87.40
63554;BME280;49699;48.072;7.800;2023-01-19T01:59:07;98577.44;;;-1.74;87.40
63554;BME280;49699;48.072;7.800;2023-01-19T02:01:34;98579.13;;;-1.73;87.69
63554;BME280;49699;48.072;7.800;2023-01-19T02:04:19;98581.66;;;-1.71;87.43
63554;BME280;49699;48.072;7.800;2023-01-19T02:06:46;98576.50;;;-1.70;87.50
63554;BME280;49699;48.072;7.800;2023-01-19T02:09:33;98576.41;;;-1.65;87.22
63554;BME280;49699;48.072;7.800;2023-01-19T02:12:20;98579.75;;;-1.62;87.50
63554;BME280;49699;48.072;7.800;2023-01-19T02:15:04;98577.13;;;-1.60;87.50
63554;BME280;49699;48.072;7.800;2023-01-19T02:17:30;98569.47;;;-1.60;87.34
63554;BME280;49699;48.072;7.800;2023-01-19T02:19:55;98569.44;;;-1.59;87.24
63554;BME280;49699;48.072;7.800;2023-01-19T02:22:34;98572.84;;;-1.58;86.94
63554;BME280;49699;48.072;7.800;2023-01-19T02:25:05;98573.72;;;-1.59;87.34
63554;BME280;49699;48.072;7.800;2023-01-19T02:27:31;98571.13;;;-1.58;87.12
63554;BME280;49699;48.072;7.800;2023-01-19T02:29:58;98571.94;;;-1.56;87.02
63554;BME280;49699;48.072;7.800;2023-01-19T02:32:24;98566.78;;;-1.54;87.34
63554;BME280;49699;48.072;7.800;2023-01-19T02:34:49;98563.41;;;-1.55;87.03
63554;BME280;49699;48.072;7.800;2023-01-19T02:37:16;98572.75;;;-1.54;87.01
63554;BME280;49699;48.072;7.800;2023-01-19T02:39:51;98566.88;;;-1.57;87.00
63554;BME280;49699;48.072;7.800;2023-01-19T02:42:24;98580.47;;;-1.57;87.13
63554;BME280;49699;48.072;7.800;2023-01-19T02:44:52;98578.84;;;-1.61;87.28
63554;BME280;49699;48.072;7.800;2023-01-19T02:47:18;98579.81;;;-1.65;87.44
63554;BME280;49699;48.072;7.800;2023-01-19T02:49:44;98580.72;;;-1.67;87.09
63554;BME280;49699;48.072;7.800;2023-01-19T02:52:15;98579.03;;;-1.68;87.33
63554;BME280;49699;48.072;7.800;2023-01-19T02:57:52;98575.72;;;-1.73;87.23
63554;BME280;49699;48.072;7.800;2023-01-19T03:00:37;98580.88;;;-1.75;87.33
63554;BME280;49699;48.072;7.800;2023-01-19T03:03:24;98583.47;;;-1.78;87.24
63554;BME280;49699;48.072;7.800;2023-01-19T03:09:01;98580.34;;;-1.91;87.36
63554;BME280;49699;48.072;7.800;2023-01-19T03:11:32;98584.66;;;-1.93;87.19
63554;BME280;49699;48.072;7.800;2023-01-19T03:14:06;98585.53;;;-1.94;87.43
63554;BME280;49699;48.072;7.800;2023-01-19T03:19:07;98578.69;;;-1.92;87.67
63554;BME280;49699;48.072;7.800;2023-01-19T03:21:36;98593.13;;;-1.91;87.67
63554;BME280;49699;48.072;7.800;2023-01-19T03:24:05;98588.03;;;-1.92;87.55
63554;BME280;49699;48.072;7.800;2023-01-19T03:26:40;98586.34;;;-1.93;87.38
63554;BME280;49699;48.072;7.800;2023-01-19T03:29:10;98585.56;;;-1.95;87.27
63554;BME280;49699;48.072;7.800;2023-01-19T03:31:38;98588.94;;;-1.95;87.21
63554;BME280;49699;48.072;7.800;2023-01-19T03:34:07;98580.41;;;-1.94;87.23
63554;BME280;49699;48.072;7.800;2023-01-19T03:36:36;98581.22;;;-1.92;87.18
63554;BME280;49699;48.072;7.800;2023-01-19T03:39:04;98573.56;;;-1.90;87.19
63554;BME280;49699;48.072;7.800;2023-01-19T03:41:32;98572.66;;;-1.88;86.75
63554;BME280;49699;48.072;7.800;2023-01-19T03:43:59;98578.59;;;-1.87;86.70
63554;BME280;49699;48.072;7.800;2023-01-19T03:46:25;98572.66;;;-1.88;86.43
63554;BME280;49699;48.072;7.800;2023-01-19T03:48:52;98579.50;;;-1.90;86.41
63554;BME280;49699;48.072;7.800;2023-01-19T03:51:18;98575.25;;;-1.91;86.35
63554;BME280;49699;48.072;7.800;2023-01-19T03:53:44;98575.28;;;-1.92;86.44
63554;BME280;49699;48.072;7.800;2023-01-19T03:56:23;98578.75;;;-1.95;86.37
63554;BME280;49699;48.072;7.800;2023-01-19T03:58:49;98584.72;;;-1.96;86.62
63554;BME280;49699;48.072;7.800;2023-01-19T04:01:16;98582.22;;;-1.97;86.65
63554;BME280;49699;48.072;7.800;2023-01-19T04:03:41;98589.91;;;-1.99;86.11
63554;BME280;49699;48.072;7.800;2023-01-19T04:06:08;98581.44;;;-2.01;86.32
63554;BME280;49699;48.072;7.800;2023-01-19T04:08:34;98589.97;;;-2.02;86.37
63554;BME280;49699;48.072;7.800;2023-01-19T04:11:00;98593.41;;;-2.04;86.40
63554;BME280;49699;48.072;7.800;2023-01-19T04:13:26;98600.25;;;-2.06;86.43
63554;BME280;49699;48.072;7.800;2023-01-19T04:15:57;98602.81;;;-2.08;86.33
63554;BME280;49699;48.072;7.800;2023-01-19T04:18:23;98597.84;;;-2.14;85.88
63554;BME280;49699;48.072;7.800;2023-01-19T04:20:48;98598.91;;;-2.24;86.12
63554;BME280;49699;48.072;7.800;2023-01-19T04:23:13;98593.94;;;-2.32;86.12
63554;BME280;49699;48.072;7.800;2023-01-19T04:25:39;98600.88;;;-2.38;86.36
63554;BME280;49699;48.072;7.800;2023-01-19T04:28:04;98600.09;;;-2.42;86.38
63554;BME280;49699;48.072;7.800;2023-01-19T04:30:29;98605.25;;;-2.45;86.32
63554;BME280;49699;48.072;7.800;2023-01-19T04:32:57;98604.44;;;-2.47;86.53
63554;BME280;49699;48.072;7.800;2023-01-19T04:35:23;98608.72;;;-2.51;86.55
63554;BME280;49699;48.072;7.800;2023-01-19T04:37:48;98613.09;;;-2.56;86.85
63554;BME280;49699;48.072;7.800;2023-01-19T04:40:13;98607.22;;;-2.59;86.63
63554;BME280;49699;48.072;7.800;2023-01-19T04:42:43;98608.13;;;-2.63;86.66
63554;BME280;49699;48.072;7.800;2023-01-19T04:45:10;98603.06;;;-2.66;86.88
63554;BME280;49699;48.072;7.800;2023-01-19T04:47:35;98601.41;;;-2.67;86.68
63554;BME280;49699;48.072;7.800;2023-01-19T04:50:01;98598.09;;;-2.71;87.01
63554;BME280;49699;48.072;7.800;2023-01-19T04:52:31;98590.44;;;-2.71;87.03
63554;BME280;49699;48.072;7.800;2023-01-19T04:55:05;98598.97;;;-2.72;86.92
63554;BME280;49699;48.072;7.800;2023-01-19T04:57:31;98601.53;;;-2.73;86.53
63554;BME280;49699;48.072;7.800;2023-01-19T04:59:57;98604.91;;;-2.73;86.88
63554;BME280;49699;48.072;7.800;2023-01-19T05:02:23;98606.59;;;-2.72;86.86
63554;BME280;49699;48.072;7.800;2023-01-19T05:04:49;98606.59;;;-2.72;86.77
63554;BME280;49699;48.072;7.800;2023-01-19T05:07:14;98606.63;;;-2.73;86.49
63554;BME280;49699;48.072;7.800;2023-01-19T05:09:40;98613.44;;;-2.75;86.37
63554;BME280;49699;48.072;7.800;2023-01-19T05:12:05;98622.88;;;-2.81;86.47
63554;BME280;49699;48.072;7.800;2023-01-19T05:14:31;98624.69;;;-2.87;86.55
63554;BME280;49699;48.072;7.800;2023-01-19T05:16:56;98633.25;;;-2.93;86.74
63554;BME280;49699;48.072;7.800;2023-01-19T05:19:21;98633.41;;;-3.02;86.88
63554;BME280;49699;48.072;7.800;2023-01-19T05:21:47;98640.31;;;-3.08;86.74
63554;BME280;49699;48.072;7.800;2023-01-19T05:24:13;98635.25;;;-3.11;87.17
63554;BME280;49699;48.072;7.800;2023-01-19T05:26:39;98644.63;;;-3.13;87.06
63554;BME280;49699;48.072;7.800;2023-01-19T05:29:04;98646.38;;;-3.19;87.38
63554;BME280;49699;48.072;7.800;2023-01-19T05:31:30;98643.03;;;-3.21;87.19
63554;BME280;49699;48.072;7.800;2023-01-19T05:33:55;98639.72;;;-3.26;87.11
63554;BME280;49699;48.072;7.800;2023-01-19T05:36:21;98639.72;;;-3.26;87.30
63554;BME280;49699;48.072;7.800;2023-01-19T05:38:46;98644.78;;;-3.24;87.12
63554;BME280;49699;48.072;7.800;2023-01-19T05:41:11;98640.56;;;-3.25;87.17
63554;BME280;49699;48.072;7.800;2023-01-19T05:43:38;98643.94;;;-3.23;87.15
63554;BME280;49699;48.072;7.800;2023-01-19T05:46:03;98641.41;;;-3.25;86.98
63554;BME280;49699;48.072;7.800;2023-01-19T05:48:29;98648.19;;;-3.24;86.88
63554;BME280;49699;48.072;7.800;2023-01-19T05:51:01;98649.88;;;-3.23;87.01
63554;BME280;49699;48.072;7.800;2023-01-19T05:53:26;98647.31;;;-3.23;86.69
63554;BME280;49699;48.072;7.800;2023-01-19T05:55:52;98649.06;;;-3.26;86.91
63554;BME280;49699;48.072;7.800;2023-01-19T05:58:18;98655.91;;;-3.31;86.97
63554;BME280;49699;48.072;7.800;2023-01-19T06:00:43;98655.13;;;-3.36;86.61
63554;BME280;49699;48.072;7.800;2023-01-19T06:03:08;98663.66;;;-3.39;86.77
63554;BME280;49699;48.072;7.800;2023-01-19T06:05:34;98667.03;;;-3.40;86.63
63554;BME280;49699;48.072;7.800;2023-01-19T06:08:02;98663.72;;;-3.42;87.04
63554;BME280;49699;48.072;7.800;2023-01-19T06:10:27;98674.69;;;-3.40;87.09
63554;BME280;49699;48.072;7.800;2023-01-19T06:12:52;98672.97;;;-3.39;87.00
63554;BME280;49699;48.072;7.800;2023-01-19T06:15:18;98667.88;;;-3.38;86.90
63554;BME280;49699;48.072;7.800;2023-01-19T06:17:44;98667.00;;;-3.35;86.85
63554;BME280;49699;48.072;7.800;2023-01-19T06:20:09;98674.53;;;-3.28;86.96
63554;BME280;49699;48.072;7.800;2023-01-19T06:22:35;98672.78;;;-3.24;86.95
63554;BME280;49699;48.072;7.800;2023-01-19T06:25:01;98668.47;;;-3.21;86.72
63554;BME280;49699;48.072;7.800;2023-01-19T06:27:26;98671.84;;;-3.19;86.89
63554;BME280;49699;48.072;7.800;2023-01-19T06:29:52;98669.28;;;-3.17;86.54
63554;BME280;49699;48.072;7.800;2023-01-19T06:32:17;98671.78;;;-3.14;86.64
63554;BME280;49699;48.072;7.800;2023-01-19T06:34:42;98673.44;;;-3.11;86.69
63554;BME280;49699;48.072;7.800;2023-01-19T06:37:09;98674.25;;;-3.08;86.76
63554;BME280;49699;48.072;7.800;2023-01-19T06:39:38;98673.31;;;-3.04;86.46
63554;BME280;49699;48.072;7.800;2023-01-19T06:42:06;98674.94;;;-2.98;86.60
63554;BME280;49699;48.072;7.800;2023-01-19T06:44:31;98675.69;;;-2.93;86.64
63554;BME280;49699;48.072;7.800;2023-01-19T06:46:57;98679.81;;;-2.86;86.32
63554;BME280;49699;48.072;7.800;2023-01-19T06:49:22;98677.22;;;-2.83;86.17
63554;BME280;49699;48.072;7.800;2023-01-19T06:51:48;98686.47;;;-2.76;85.75
63554;BME280;49699;48.072;7.800;2023-01-19T06:54:13;98683.84;;;-2.71;85.72
63554;BME280;49699;48.072;7.800;2023-01-19T06:56:38;98683.75;;;-2.67;86.08
63554;BME280;49699;48.072;7.800;2023-01-19T06:59:04;98686.22;;;-2.62;85.79
63554;BME280;49699;48.072;7.800;2023-01-19T07:01:29;98684.44;;;-2.57;85.92
63554;BME280;49699;48.072;7.800;2023-01-19T07:03:55;98685.25;;;-2.55;85.72
63554;BME280;49699;48.072;7.800;2023-01-19T07:06:20;98686.06;;;-2.52;85.66
63554;BME280;49699;48.072;7.800;2023-01-19T07:08:45;98678.38;;;-2.50;85.46
63554;BME280;49699;48.072;7.800;2023-01-19T07:11:11;98681.72;;;-2.48;85.51
63554;BME280;49699;48.072;7.800;2023-01-19T07:13:38;98680.88;;;-2.47;85.52
63554;BME280;49699;48.072;7.800;2023-01-19T07:16:09;98674.00;;;-2.43;85.65
63554;BME280;49699;48.072;7.800;2023-01-19T07:18:36;98675.66;;;-2.39;85.46
63554;BME280;49699;48.072;7.800;2023-01-19T07:21:01;98679.88;;;-2.38;85.14
63554;BME280;49699;48.072;7.800;2023-01-19T07:23:27;98684.91;;;-2.34;85.54
63554;BME280;49699;48.072;7.800;2023-01-19T07:25:55;98685.69;;;-2.32;85.27
63554;BME280;49699;48.072;7.800;2023-01-19T07:28:21;98691.56;;;-2.28;85.23
63554;BME280;49699;48.072;7.800;2023-01-19T07:30:50;98689.78;;;-2.23;85.16
63554;BME280;49699;48.072;7.800;2023-01-19T07:33:15;98693.97;;;-2.19;85.17
63554;BME280;49699;48.072;7.800;2023-01-19T07:35:48;98694.69;;;-2.14;84.88
63554;BME280;49699;48.072;7.800;2023-01-19T07:38:15;98701.44;;;-2.10;85.15
63554;BME280;49699;48.072;7.800;2023-01-19T07:40:41;98699.66;;;-2.05;84.89
63554;BME280;49699;48.072;7.800;2023-01-19T07:43:06;98704.66;;;-2.00;84.77
63554;BME280;49699;48.072;7.800;2023-01-19T07:45:32;98711.38;;;-1.96;84.58
63554;BME280;49699;48.072;7.800;2023-01-19T07:47:57;98702.81;;;-1.94;84.71
63554;BME280;49699;48.072;7.800;2023-01-19T07:50:23;98702.84;;;-1.95;84.69
63554;BME280;49699;48.072;7.800;2023-01-19T07:52:50;98709.66;;;-1.96;85.08
63554;BME280;49699;48.072;7.800;2023-01-19T07:55:18;98707.09;;;-1.96;84.99
63554;BME280;49699;48.072;7.800;2023-01-19T07:57:44;98712.16;;;-1.93;84.98
63554;BME280;49699;48.072;7.800;2023-01-19T08:00:12;98714.72;;;-1.93;84.57
63554;BME280;49699;48.072;7.800;2023-01-19T08:02:38;98716.34;;;-1.89;84.77
63554;BME280;49699;48.072;7.800;2023-01-19T08:05:05;98718.84;;;-1.86;84.86
63554;BME280;49699;48.072;7.800;2023-01-19T08:07:32;98716.19;;;-1.81;84.76
63554;BME280;49699;48.072;7.800;2023-01-19T08:09:57;98716.09;;;-1.77;84.55
63554;BME280;49699;48.072;7.800;2023-01-19T08:12:23;98719.38;;;-1.70;84.44
63554;BME280;49699;48.072;7.800;2023-01-19T08:14:48;98724.38;;;-1.64;84.40
63554;BME280;49699;48.072;7.800;2023-01-19T08:17:13;98727.59;;;-1.57;83.86
63554;BME280;49699;48.072;7.800;2023-01-19T08:19:39;98730.06;;;-1.51;83.81
63554;BME280;49699;48.072;7.800;2023-01-19T08:22:05;98727.41;;;-1.47;83.43
63554;BME280;49699;48.072;7.800;2023-01-19T08:24:30;98735.75;;;-1.40;83.35
63554;BME280;49699;48.072;7.800;2023-01-19T08:27:00;98733.09;;;-1.34;83.15
63554;BME280;49699;48.072;7.800;2023-01-19T08:29:26;98727.03;;;-1.28;82.81
63554;BME280;49699;48.072;7.800;2023-01-19T08:31:54;98735.41;;;-1.23;82.68
63554;BME280;49699;48.072;7.800;2023-01-19T08:34:23;98736.22;;;-1.21;82.41
63554;BME280;49699;48.072;7.800;2023-01-19T08:36:48;98739.63;;;-1.22;82.14
63554;BME280;49699;48.072;7.800;2023-01-19T08:39:13;98730.31;;;-1.23;82.21
63554;BME280;49699;48.072;7.800;2023-01-19T08:41:39;98736.25;;;-1.23;82.17
63554;BME280;49699;48.072;7.800;2023-01-19T08:44:05;98741.34;;;-1.23;82.22
63554;BME280;49699;48.072;7.800;2023-01-19T08:46:31;98738.75;;;-1.20;82.21
63554;BME280;49699;48.072;7.800;2023-01-19T08:48:56;98748.06;;;-1.17;82.07
63554;BME280;49699;48.072;7.800;2023-01-19T08:51:22;98735.16;;;-1.11;82.14
63554;BME280;49699;48.072;7.800;2023-01-19T08:53:47;98741.53;;;-0.92;81.57
63554;BME280;49699;48.072;7.800;2023-01-19T08:56:13;98741.88;;;-0.70;80.79
63554;BME280;49699;48.072;7.800;2023-01-19T08:58:40;98743.03;;;-0.48;79.78
63554;BME280;49699;48.072;7.800;2023-01-19T09:01:06;98748.38;;;-0.21;79.02
63554;BME280;49699;48.072;7.800;2023-01-19T09:03:35;98742.72;;;0.00;78.28
63554;BME280;49699;48.072;7.800;2023-01-19T09:06:04;98747.47;;;0.14;77.74
63554;BME280;49699;48.072;7.800;2023-01-19T09:08:30;98749.84;;;0.20;77.28
63554;BME280;49699;48.072;7.800;2023-01-19T09:10:55;98752.22;;;0.26;77.01
63554;BME280;49699;48.072;7.800;2023-01-19T09:13:21;98746.19;;;0.28;77.15
63554;BME280;49699;48.072;7.800;2023-01-19T09:15:47;98744.44;;;0.30;77.06
63554;BME280;49699;48.072;7.800;2023-01-19T09:18:15;98740.97;;;0.33;76.92
63554;BME280;49699;48.072;7.800;2023-01-19T09:20:43;98744.22;;;0.38;76.89
63554;BME280;49699;48.072;7.800;2023-01-19T09:23:10;98730.38;;;0.45;76.85
63554;BME280;49699;48.072;7.800;2023-01-19T09:25:40;98739.50;;;0.54;76.70
63554;BME280;49699;48.072;7.800;2023-01-19T09:28:07;98741.84;;;0.61;76.42
63554;BME280;49699;48.072;7.800;2023-01-19T09:30:34;98747.66;;;0.68;76.22
63554;BME280;49699;48.072;7.800;2023-01-19T09:33:05;98751.78;;;0.72;75.68
63554;BME280;49699;48.072;7.800;2023-01-19T09:35:32;98752.50;;;0.77;75.58
63554;BME280;49699;48.072;7.800;2023-01-19T09:37:58;98755.84;;;0.79;74.93
63554;BME280;49699;48.072;7.800;2023-01-19T09:40:23;98755.53;;;0.90;74.85
63554;BME280;49699;48.072;7.800;2023-01-19T09:51:12;98740.63;;;1.30;72.54
63554;BME280;49699;48.072;7.800;2023-01-19T09:56:32;98756.53;;;1.14;73.10
63554;BME280;49699;48.072;7.800;2023-01-19T09:58:58;98751.53;;;1.09;73.29
63554;BME280;49699;48.072;7.800;2023-01-19T10:07:23;98760.41;;;0.99;73.28
63554;BME280;49699;48.072;7.800;2023-01-19T10:10:04;98758.84;;;0.93;72.79
63554;BME280;49699;48.072;7.800;2023-01-19T10:13:00;98757.28;;;0.89;72.86
63554;BME280;49699;48.072;7.800;2023-01-19T10:15:54;98760.78;;;0.87;73.08
63554;BME280;49699;48.072;7.800;2023-01-19T10:18:26;98760.78;;;0.87;72.88
63554;BME280;49699;48.072;7.800;2023-01-19T10:23:42;98755.66;;;0.87;72.53
63554;BME280;49699;48.072;7.800;2023-01-19T10:26:14;98760.00;;;0.83;72.76
63554;BME280;49699;48.072;7.800;2023-01-19T10:28:42;98759.19;;;0.83;72.59
63554;BME280;49699;48.072;7.800;2023-01-19T10:31:08;98756.56;;;0.84;72.68
63554;BME280;49699;48.072;7.800;2023-01-19T10:33:35;98760.81;;;0.85;72.57
63554;BME280;49699;48.072;7.800;2023-01-19T10:36:05;98762.34;;;0.91;72.55
63554;BME280;49699;48.072;7.800;2023-01-19T10:38:33;98758.81;;;0.95;72.12
63554;BME280;49699;48.072;7.800;2023-01-19T10:41:13;98760.44;;;0.97;72.13
63554;BME280;49699;48.072;7.800;2023-01-19T10:43:44;98752.59;;;1.03;72.15
63554;BME280;49699;48.072;7.800;2023-01-19T10:46:37;98757.41;;;1.13;71.84
63554;BME280;49699;48.072;7.800;2023-01-19T10:49:21;98758.06;;;1.19;71.65
63554;BME280;49699;48.072;7.800;2023-01-19T10:51:48;98758.00;;;1.22;71.23
63554;BME280;49699;48.072;7.800;2023-01-19T10:54:13;98752.03;;;1.22;71.00
63554;BME280;49699;48.072;7.800;2023-01-19T10:56:39;98744.47;;;1.17;70.87
63554;BME280;49699;48.072;7.800;2023-01-19T10:59:05;98741.91;;;1.17;71.02
63554;BME280;49699;48.072;7.800;2023-01-19T11:01:31;98741.72;;;1.23;70.87
63554;BME280;49699;48.072;7.800;2023-01-19T11:04:18;98740.66;;;1.29;70.79
63554;BME280;49699;48.072;7.800;2023-01-19T11:06:44;98745.56;;;1.36;70.46
63554;BME280;49699;48.072;7.800;2023-01-19T11:09:16;98736.13;;;1.38;70.39
63554;BME280;49699;48.072;7.800;2023-01-19T11:11:50;98737.75;;;1.41;70.30
63554;BME280;49699;48.072;7.800;2023-01-19T11:14:21;98728.28;;;1.43;70.28
63554;BME280;49699;48.072;7.800;2023-01-19T11:16:50;98731.59;;;1.45;70.35
63554;BME280;49699;48.072;7.800;2023-01-19T11:19:28;98727.31;;;1.46;70.13
63554;BME280;49699;48.072;7.800;2023-01-19T11:22:16;98718.59;;;1.51;70.36
63554;BME280;49699;48.072;7.800;2023-01-19T11:24:46;98733.00;;;1.55;70.54
63554;BME280;49699;48.072;7.800;2023-01-19T11:27:15;98727.56;;;1.64;70.54
63554;BME280;49699;48.072;7.800;2023-01-19T11:29:47;98726.38;;;1.74;70.37
63554;BME280;49699;48.072;7.800;2023-01-19T11:32:21;98729.53;;;1.83;70.06
63554;BME280;49699;48.072;7.800;2023-01-19T11:34:47;98732.81;;;1.86;69.94
63554;BME280;49699;48.072;7.800;2023-01-19T11:39:47;98730.06;;;1.92;69.98
63554;BME280;49699;48.072;7.800;2023-01-19T11:42:13;98719.53;;;2.00;69.39
63554;BME280;49699;48.072;7.800;2023-01-19T11:45:14;98727.91;;;2.05;69.64
63554;BME280;49699;48.072;7.800;2023-01-19T11:47:46;98725.09;;;2.13;69.16
63554;BME280;49699;48.072;7.800;2023-01-19T11:55:52;98708.84;;;2.35;68.80
63554;BME280;49699;48.072;7.800;2023-01-19T11:58:19;98709.59;;;2.39;68.29
63554;BME280;49699;48.072;7.800;2023-01-19T12:06:09;98709.53;;;2.40;68.20
63554;BME280;49699;48.072;7.800;2023-01-19T12:08:41;98706.81;;;2.45;68.14
63554;BME280;49699;48.072;7.800;2023-01-19T12:11:09;98701.56;;;2.48;67.91
63554;BME280;49699;48.072;7.800;2023-01-19T12:13:39;98702.41;;;2.49;67.90
63554;BME280;49699;48.072;7.800;2023-01-19T12:16:12;98702.56;;;2.44;67.42
63554;BME280;49699;48.072;7.800;2023-01-19T12:18:45;98699.31;;;2.39;67.71
63554;BME280;49699;48.072;7.800;2023-01-19T12:21:12;98709.63;;;2.37;68.01
63554;BME280;49699;48.072;7.800;2023-01-19T12:28:43;98701.78;;;2.42;67.79
63554;BME280;49699;48.072;7.800;2023-01-19T12:31:14;98701.66;;;2.45;67.86
63554;BME280;49699;48.072;7.800;2023-01-19T12:33:40;98699.09;;;2.45;67.70
63554;BME280;49699;48.072;7.800;2023-01-19T12:41:31;98694.91;;;2.42;67.81
63554;BME280;49699;48.072;7.800;2023-01-19T12:46:47;98690.19;;;2.54;67.72
63554;BME280;49699;48.072;7.800;2023-01-19T12:49:30;98692.44;;;2.63;67.72
63554;BME280;49699;48.072;7.800;2023-01-19T12:57:26;98688.66;;;2.71;67.19
63554;BME280;49699;48.072;7.800;2023-01-19T12:59:59;98697.16;;;2.73;67.08
63554;BME280;49699;48.072;7.800;2023-01-19T13:02:43;98694.31;;;2.81;66.59
63554;BME280;49699;48.072;7.800;2023-01-19T13:11:11;98686.47;;;3.06;65.60
63554;BME280;49699;48.072;7.800;2023-01-19T13:13:41;98684.06;;;3.03;66.03
63554;BME280;49699;48.072;7.800;2023-01-19T13:18:43;98688.19;;;2.85;66.27
63554;BME280;49699;48.072;7.800;2023-01-19T13:21:10;98696.88;;;2.81;66.50
63554;BME280;49699;48.072;7.800;2023-01-19T13:26:19;98696.72;;;2.86;66.45
63554;BME280;49699;48.072;7.800;2023-01-19T13:28:50;98690.66;;;2.87;66.86
63554;BME280;49699;48.072;7.800;2023-01-19T13:31:17;98690.84;;;2.82;66.57
63554;BME280;49699;48.072;7.800;2023-01-19T13:33:57;98694.50;;;2.76;66.83
63554;BME280;49699;48.072;7.800;2023-01-19T13:36:30;98691.19;;;2.73;66.99
63554;BME280;49699;48.072;7.800;2023-01-19T13:38:58;98693.94;;;2.68;67.06
63554;BME280;49699;48.072;7.800;2023-01-19T13:41:29;98688.97;;;2.64;67.29
63554;BME280;49699;48.072;7.800;2023-01-19T13:44:11;98688.19;;;2.62;67.43
63554;BME280;49699;48.072;7.800;2023-01-19T13:46:38;98693.34;;;2.62;67.43
63554;BME280;49699;48.072;7.800;2023-01-19T13:49:12;98694.97;;;2.64;67.55
63554;BME280;49699;48.072;7.800;2023-01-19T13:51:41;98689.97;;;2.60;67.10
63554;BME280;49699;48.072;7.800;2023-01-19T13:54:14;98690.38;;;2.49;67.17
63554;BME280;49699;48.072;7.800;2023-01-19T13:56:46;98690.72;;;2.40;67.37
63554;BME280;49699;48.072;7.800;2023-01-19T13:59:12;98679.91;;;2.32;67.75
63554;BME280;49699;48.072;7.800;2023-01-19T14:01:42;98684.16;;;2.33;68.03
63554;BME280;49699;48.072;7.800;2023-01-19T14:04:30;98692.78;;;2.30;67.82
63554;BME280;49699;48.072;7.800;2023-01-19T14:07:04;98694.47;;;2.31;68.13
63554;BME280;49699;48.072;7.800;2023-01-19T14:09:30;98692.75;;;2.32;68.21
63554;BME280;49699;48.072;7.800;2023-01-19T14:12:13;98692.00;;;2.28;68.09
63554;BME280;49699;48.072;7.800;2023-01-19T14:14:40;98691.44;;;2.20;68.14
63554;BME280;49699;48.072;7.800;2023-01-19T14:17:27;98691.59;;;2.16;68.31
63554;BME280;49699;48.072;7.800;2023-01-19T14:19:57;98695.22;;;2.10;68.31
63554;BME280;49699;48.072;7.800;2023-01-19T14:22:45;98694.53;;;2.05;68.60